Time;durP1;ratioP1;P1;durP2;ratioP2;P2;SDS_P1;SDS_P2;PMS_P1;PMS_P2;Temp;Humidity;BMP_temperature;BMP_pressure;BME280_temperature;BME280_humidity;BME280_pressure;Samples;Min_cycle;Max_cycle;Signal;HPM_P1;HPM_P2
2023/09/07 00:01:37;;;;;;;0.30;0.30;;;24.60;55.80;;;24.92;41.19;95586.81;5014226;28;20193;-32
2023/09/07 00:04:06;;;;;;;0.30;0.30;;;24.50;55.70;;;24.90;41.48;95595.16;5014219;28;20188;-33
2023/09/07 00:06:34;;;;;;;0.30;0.30;;;24.50;55.90;;;24.89;41.42;95590.03;5014095;28;20202;-33
2023/09/07 00:09:03;;;;;;;0.35;0.35;;;24.50;55.90;;;24.89;41.50;95585.47;5014426;28;20199;-34
2023/09/07 00:11:33;;;;;;;0.50;0.50;;;24.40;55.90;;;24.89;41.43;95590.84;5014391;28;20267;-31
2023/09/07 00:14:00;;;;;;;0.30;0.30;;;24.40;55.90;;;24.86;41.49;95583.31;5014614;28;20203;-32
2023/09/07 00:16:27;;;;;;;0.40;0.40;;;24.40;56.00;;;24.84;41.35;95587.34;5014222;28;20199;-35
2023/09/07 00:18:55;;;;;;;0.40;0.40;;;24.40;56.00;;;24.83;41.57;95585.72;5014202;28;20212;-34
2023/09/07 00:21:22;;;;;;;0.30;0.30;;;24.40;56.00;;;24.81;41.45;95583.31;5014011;28;20287;-35
2023/09/07 00:23:49;;;;;;;0.40;0.40;;;24.40;56.00;;;24.77;41.46;95580.34;5014194;28;20291;-32
2023/09/07 00:26:16;;;;;;;0.40;0.40;;;24.40;56.00;;;24.72;41.50;95577.66;5013841;28;20190;-32
2023/09/07 00:28:44;;;;;;;0.40;0.40;;;24.40;56.00;;;24.69;41.46;95586.25;5014048;28;20536;-37
2023/09/07 00:31:11;;;;;;;0.40;0.40;;;24.30;56.00;;;24.67;41.62;95590.25;5012850;28;20245;-33
2023/09/07 00:33:38;;;;;;;0.40;0.40;;;24.30;56.20;;;24.64;41.65;95586.19;5014304;28;20218;-34
2023/09/07 00:36:05;;;;;;;0.40;0.40;;;24.30;56.20;;;24.61;41.56;95578.69;5012921;28;20204;-33
2023/09/07 00:38:33;;;;;;;0.35;0.35;;;24.30;56.30;;;24.60;41.88;95585.94;5014824;28;20213;-31
2023/09/07 00:41:00;;;;;;;0.30;0.30;;;24.20;56.20;;;24.58;41.65;95582.72;5013649;28;20515;-32
2023/09/07 00:43:27;;;;;;;0.30;0.30;;;24.20;56.40;;;24.60;41.91;95579.75;5012692;28;20220;-34
2023/09/07 00:45:55;;;;;;;0.30;0.30;;;24.20;56.40;;;24.57;41.76;95572.22;5013648;28;20225;-32
2023/09/07 00:48:22;;;;;;;0.30;0.30;;;24.20;56.40;;;24.56;41.94;95576.81;5014100;28;20212;-31
2023/09/07 00:50:49;;;;;;;0.30;0.30;;;24.20;56.50;;;24.53;42.22;95581.88;5013531;28;20203;-33
2023/09/07 00:53:17;;;;;;;0.30;0.30;;;24.20;56.50;;;24.51;41.78;95584.84;5013545;28;20221;-32
2023/09/07 00:55:45;;;;;;;0.35;0.35;;;24.10;56.60;;;24.49;41.95;95575.44;5013722;28;20634;-36
2023/09/07 00:58:13;;;;;;;0.50;0.50;;;24.10;56.50;;;24.44;42.10;95571.66;5012314;28;20210;-33
2023/09/07 01:00:40;;;;;;;0.30;0.30;;;24.10;57.80;;;24.44;41.94;95573.56;5011376;28;20287;-32
2023/09/07 01:03:08;;;;;;;0.35;0.35;;;24.10;56.60;;;24.42;42.49;95573.00;5013417;28;20190;-33
2023/09/07 01:05:52;;;;;;;0.38;0.38;;;24.00;56.70;;;24.41;42.15;95571.38;5013265;28;20191;-35
2023/09/07 01:08:26;;;;;;;0.57;0.57;;;24.00;56.70;;;24.42;42.19;95565.75;5012641;28;20266;-32
2023/09/07 01:10:53;;;;;;;0.50;0.50;;;24.00;56.80;;;24.44;42.03;95570.88;5012740;28;20194;-34
2023/09/07 01:13:21;;;;;;;0.35;0.35;;;24.00;56.80;;;24.45;42.06;95564.44;5013188;28;20207;-30
2023/09/07 01:15:48;;;;;;;0.35;0.35;;;24.00;56.80;;;24.47;42.13;95570.34;5012234;28;20290;-33
2023/09/07 01:18:17;;;;;;;0.30;0.30;;;24.00;57.00;;;24.46;42.19;95563.34;4995706;28;20266;-34
2023/09/07 01:21:11;;;;;;;0.52;0.52;;;24.00;57.00;;;24.44;42.17;95558.25;4998984;28;20209;-35
2023/09/07 01:23:41;;;;;;;0.40;0.40;;;24.00;57.00;;;24.44;41.86;95563.63;5012381;28;20206;-34
2023/09/07 01:26:09;;;;;;;0.40;0.40;;;24.00;57.10;;;24.45;42.17;95564.44;5012706;28;20190;-32
2023/09/07 01:28:37;;;;;;;0.30;0.30;;;24.10;57.10;;;24.47;42.27;95564.97;5013532;28;20195;-33
2023/09/07 01:31:06;;;;;;;0.32;0.32;;;24.00;57.10;;;24.49;42.27;95565.53;5012276;28;20191;-33
2023/09/07 01:33:33;;;;;;;0.30;0.30;;;24.00;58.30;;;24.49;42.07;95564.72;5012922;28;20192;-31
2023/09/07 01:36:00;;;;;;;0.38;0.38;;;24.10;57.20;;;24.47;42.28;95562.28;5013495;28;20515;-33
2023/09/07 01:38:27;;;;;;;0.30;0.30;;;24.10;57.10;;;24.45;42.41;95557.19;5013253;28;20575;-36
2023/09/07 01:40:54;;;;;;;0.40;0.40;;;24.00;56.90;;;24.45;42.32;95561.75;5012621;28;20228;-33
2023/09/07 01:43:21;;;;;;;0.40;0.40;;;24.00;57.00;;;24.41;42.23;95552.63;5012700;28;20195;-33
2023/09/07 01:45:49;;;;;;;0.30;0.30;;;24.00;57.00;;;24.40;42.26;95559.03;5012721;28;20697;-32
2023/09/07 01:48:16;;;;;;;0.30;0.30;;;24.00;57.00;;;24.40;42.16;95559.03;5011879;28;20283;-32
2023/09/07 01:50:43;;;;;;;0.40;0.40;;;24.00;57.20;;;24.38;42.44;95555.84;5012624;28;20646;-33
2023/09/07 01:53:10;;;;;;;0.30;0.30;;;24.00;57.10;;;24.37;42.42;95556.91;5012037;28;20224;-34
2023/09/07 01:55:38;;;;;;;0.30;0.30;;;24.00;57.10;;;24.35;42.39;95556.34;5011878;28;20213;-34
2023/09/07 01:58:05;;;;;;;0.30;0.30;;;24.00;57.20;;;24.34;42.48;95557.44;5011507;28;20206;-32
2023/09/07 02:00:37;;;;;;;0.30;0.30;;;24.00;57.30;;;24.36;42.40;95555.28;5011482;28;20304;-31
2023/09/07 02:03:06;;;;;;;0.30;0.30;;;24.00;57.40;;;24.36;42.35;95556.09;5012793;28;20190;-34
2023/09/07 02:05:34;;;;;;;0.30;0.30;;;23.90;57.30;;;24.37;42.53;95548.88;4995337;28;20621;-34
2023/09/07 02:08:01;;;;;;;0.30;0.30;;;24.00;57.50;;;24.37;42.56;95557.69;5011330;28;20228;-33
2023/09/07 02:10:28;;;;;;;0.40;0.40;;;24.00;57.50;;;24.36;42.60;95553.41;5012348;28;20229;-35
2023/09/07 02:12:56;;;;;;;0.30;0.30;;;24.00;57.50;;;24.37;42.60;95548.88;5011892;28;20237;-34
2023/09/07 02:15:24;;;;;;;0.50;0.50;;;24.00;57.40;;;24.36;42.45;95557.97;5012393;28;20256;-33
2023/09/07 02:17:52;;;;;;;0.30;0.30;;;24.00;57.50;;;24.35;42.48;95561.72;5011335;28;20343;-36
2023/09/07 02:20:21;;;;;;;0.30;0.30;;;24.00;57.30;;;24.30;42.53;95560.66;5011211;28;20236;-33
2023/09/07 02:22:48;;;;;;;0.30;0.30;;;24.00;57.40;;;24.28;42.61;95556.63;5012195;28;20624;-33
2023/09/07 02:25:15;;;;;;;0.43;0.43;;;24.00;57.30;;;24.25;42.70;95554.44;5011349;28;20694;-35
2023/09/07 02:27:42;;;;;;;0.40;0.40;;;23.90;57.20;;;24.22;42.74;95561.16;5011593;28;20603;-33
2023/09/07 02:30:10;;;;;;;0.50;0.50;;;23.90;57.20;;;24.21;42.63;95572.94;5012089;28;20517;-31
2023/09/07 02:32:37;;;;;;;0.30;0.30;;;23.90;57.30;;;24.20;42.68;95565.97;5012098;28;20195;-31
2023/09/07 02:35:04;;;;;;;0.30;0.30;;;23.90;57.30;;;24.19;42.52;95556.28;5011545;28;20197;-35
2023/09/07 02:37:32;;;;;;;0.40;0.40;;;23.90;57.50;;;24.19;42.73;95566.22;5012229;28;20205;-35
2023/09/07 02:39:59;;;;;;;0.30;0.30;;;23.90;57.50;;;24.18;42.90;95565.44;5010965;28;20315;-35
2023/09/07 02:42:26;;;;;;;0.30;0.30;;;23.80;57.40;;;24.18;42.93;95569.97;5012167;28;20209;-34
2023/09/07 02:44:53;;;;;;;0.40;0.40;;;23.80;57.40;;;24.17;42.82;95566.50;5012210;28;20275;-35
2023/09/07 02:47:21;;;;;;;0.30;0.30;;;23.80;57.40;;;24.18;42.80;95561.94;5010842;28;20204;-32
2023/09/07 02:49:48;;;;;;;0.30;0.30;;;23.80;57.50;;;24.17;42.87;95571.84;5012012;28;20207;-32
2023/09/07 02:52:16;;;;;;;0.40;0.40;;;23.80;57.50;;;24.19;42.93;95571.59;5011505;28;20228;-33
2023/09/07 02:54:44;;;;;;;0.40;0.40;;;23.80;57.60;;;24.18;42.87;95567.28;5010884;28;20648;-33
2023/09/07 02:57:12;;;;;;;0.32;0.32;;;23.80;57.60;;;24.18;42.97;95562.75;5010860;28;20546;-33
2023/09/07 02:59:40;;;;;;;0.40;0.40;;;23.80;57.60;;;24.20;43.29;95567.84;5010724;28;20248;-32
2023/09/07 03:02:07;;;;;;;0.40;0.40;;;23.80;57.90;;;24.21;42.92;95567.56;5011027;28;20217;-36
2023/09/07 03:04:34;;;;;;;0.30;0.30;;;23.80;57.70;;;24.20;42.89;95579.34;5011702;28;20277;-33
2023/09/07 03:07:02;;;;;;;0.40;0.40;;;23.80;57.70;;;24.20;43.05;95568.63;4994657;28;20240;-34
2023/09/07 03:09:30;;;;;;;0.40;0.40;;;23.90;57.80;;;24.20;42.71;95567.84;5010786;28;20201;-32
2023/09/07 03:11:57;;;;;;;0.40;0.40;;;23.80;57.60;;;24.16;42.90;95569.41;5010708;28;20198;-34
2023/09/07 03:14:24;;;;;;;0.40;0.40;;;23.90;57.70;;;24.12;42.71;95569.13;5010670;28;20633;-32
2023/09/07 03:16:54;;;;;;;0.40;0.40;;;23.80;57.40;;;24.09;42.71;95561.63;5010532;28;20249;-33
2023/09/07 03:19:21;;;;;;;0.32;0.32;;;23.80;57.50;;;24.08;42.82;95565.38;5010420;28;20215;-35
2023/09/07 03:21:48;;;;;;;0.30;0.30;;;23.80;57.60;;;24.08;42.99;95562.69;5010543;28;20220;-32
2023/09/07 03:24:16;;;;;;;0.32;0.32;;;23.70;57.60;;;24.07;42.97;95561.91;5012312;28;20196;-35
2023/09/07 03:26:43;;;;;;;0.40;0.40;;;23.70;57.50;;;24.08;42.93;95565.38;5013883;28;20765;-32
2023/09/07 03:29:11;;;;;;;0.40;0.40;;;23.70;57.70;;;24.05;42.95;95564.03;5013724;28;20608;-33
2023/09/07 03:31:38;;;;;;;0.30;0.30;;;23.70;57.60;;;24.03;42.79;95571.50;5014080;28;20197;-33
2023/09/07 03:34:06;;;;;;;0.30;0.30;;;23.70;57.50;;;24.00;42.90;95565.88;5013778;28;20202;-32
2023/09/07 03:36:33;;;;;;;0.40;0.40;;;23.70;57.50;;;23.98;43.12;95574.97;5013747;28;20316;-35
2023/09/07 03:39:00;;;;;;;0.40;0.40;;;23.70;57.70;;;23.96;42.98;95574.44;5013505;28;20193;-35
2023/09/07 03:41:30;;;;;;;0.30;0.30;;;23.70;57.60;;;23.94;43.06;95579.25;5014646;28;20259;-32
2023/09/07 03:43:58;;;;;;;0.32;0.32;;;23.70;57.60;;;23.92;43.02;95580.53;5013695;28;20212;-33
2023/09/07 03:46:29;;;;;;;0.40;0.40;;;23.70;57.70;;;23.90;42.96;95569.28;5013591;28;20300;-32
2023/09/07 03:48:56;;;;;;;0.32;0.32;;;23.60;57.60;;;23.88;43.20;95580.25;5014642;28;20182;-36
2023/09/07 03:51:23;;;;;;;0.30;0.30;;;23.60;57.70;;;23.87;43.17;95572.50;5013492;28;20213;-31
2023/09/07 03:53:51;;;;;;;0.30;0.30;;;23.60;57.70;;;23.83;43.24;95575.66;5013501;28;20205;-35
2023/09/07 03:56:19;;;;;;;0.30;0.30;;;23.60;58.90;;;23.82;43.17;95582.09;4997427;28;20208;-34
2023/09/07 03:58:49;;;;;;;0.35;0.35;;;23.60;57.60;;;23.80;43.27;95583.41;5013498;28;20522;-34
2023/09/07 04:01:16;;;;;;;0.30;0.30;;;23.50;58.70;;;23.78;43.29;95581.00;5013304;28;20220;-33
2023/09/07 04:03:43;;;;;;;0.30;0.30;;;23.50;57.70;;;23.75;43.05;95586.88;5013290;28;20628;-35
2023/09/07 04:06:11;;;;;;;0.40;0.40;;;23.50;57.60;;;23.71;43.20;95582.31;5013513;28;20553;-31
2023/09/07 04:08:38;;;;;;;0.30;0.30;;;23.50;57.50;;;23.65;43.38;95584.13;5014121;28;20185;-33
2023/09/07 04:11:05;;;;;;;0.30;0.30;;;23.50;57.50;;;23.61;43.27;95580.38;5013597;28;20610;-32
2023/09/07 04:13:32;;;;;;;0.40;0.40;;;23.50;57.60;;;23.60;43.43;95579.56;4996995;28;20296;-34
2023/09/07 04:16:00;;;;;;;0.40;0.40;;;23.40;57.60;;;23.59;43.72;95572.56;5013244;28;20599;-36
2023/09/07 04:18:27;;;;;;;0.40;0.40;;;23.40;57.80;;;23.57;43.52;95577.41;5013045;28;20301;-36
2023/09/07 04:21:07;;;;;;;0.30;0.30;;;23.40;57.70;;;23.55;43.21;95579.53;5012948;28;20330;-35
2023/09/07 04:23:35;;;;;;;0.30;0.30;;;23.30;57.80;;;23.54;43.53;95583.25;5013423;28;20265;-33
2023/09/07 04:26:11;;;;;;;0.30;0.30;;;23.30;57.80;;;23.53;43.44;95576.28;5013012;28;20291;-38
2023/09/07 04:28:39;;;;;;;0.40;0.40;;;23.30;58.00;;;23.53;43.68;95578.19;5014091;28;20581;-35
2023/09/07 04:31:06;;;;;;;0.38;0.38;;;23.30;58.00;;;23.55;43.82;95576.06;5013761;28;20193;-33
2023/09/07 04:33:34;;;;;;;0.30;0.30;;;23.30;59.30;;;23.56;43.11;95575.78;5013860;28;20212;-32
2023/09/07 04:36:15;;;;;;;0.38;0.38;;;23.30;59.40;;;23.56;43.61;95583.81;5012591;28;20197;-35
2023/09/07 04:38:45;;;;;;;0.40;0.40;;;23.30;58.20;;;23.58;43.50;95583.56;5012738;28;20290;-33
2023/09/07 04:41:13;;;;;;;0.30;0.30;;;23.30;58.10;;;23.57;43.56;95584.63;5012644;28;20224;-34
2023/09/07 04:43:45;;;;;;;0.30;0.30;;;23.30;58.00;;;23.57;43.47;95590.78;5012981;28;20197;-36
2023/09/07 04:46:13;;;;;;;0.40;0.40;;;23.30;58.20;;;23.59;43.74;95580.63;5012681;28;20273;-34
2023/09/07 04:48:41;;;;;;;0.30;0.30;;;23.30;58.00;;;23.60;43.66;95587.59;5012750;28;20210;-34
2023/09/07 04:51:10;;;;;;;0.40;0.40;;;23.30;58.10;;;23.62;43.91;95581.97;5012627;28;20205;-34
2023/09/07 04:53:38;;;;;;;0.40;0.40;;;23.30;58.20;;;23.65;43.59;95582.25;5012585;28;20205;-36
2023/09/07 04:56:10;;;;;;;0.30;0.30;;;23.30;58.40;;;23.68;43.65;95586.31;5013440;28;20273;-37
2023/09/07 04:58:38;;;;;;;0.30;0.30;;;23.40;58.40;;;23.72;43.72;95587.41;5012459;28;20193;-34
2023/09/07 05:01:08;;;;;;;0.30;0.30;;;23.40;58.50;;;23.76;43.84;95585.81;5012404;28;20226;-33
2023/09/07 05:03:37;;;;;;;0.38;0.38;;;23.40;58.60;;;23.80;43.89;95578.88;4997246;28;20284;-34
2023/09/07 05:06:04;;;;;;;0.30;0.30;;;23.40;58.60;;;23.85;43.79;95588.00;5013298;28;20189;-33
2023/09/07 05:08:32;;;;;;;0.30;0.30;;;23.50;58.60;;;23.87;43.75;95585.88;5012460;28;20642;-36
2023/09/07 05:11:03;;;;;;;0.40;0.40;;;23.50;58.70;;;23.91;43.68;95592.31;5012300;28;20206;-34
2023/09/07 05:13:30;;;;;;;0.30;0.30;;;23.50;58.60;;;23.91;43.94;95593.16;5013607;28;20197;-33
2023/09/07 05:16:01;;;;;;;0.30;0.30;;;23.60;58.60;;;23.96;43.91;95593.19;4996333;28;20214;-34
2023/09/07 05:18:28;;;;;;;0.30;0.30;;;23.60;58.60;;;23.99;43.93;95594.53;5011926;28;20233;-34
2023/09/07 05:20:57;;;;;;;0.30;0.30;;;23.60;58.60;;;24.02;43.97;95595.91;5013014;28;20300;-35
2023/09/07 05:23:26;;;;;;;0.30;0.30;;;23.70;59.20;;;24.04;44.02;95599.13;5013058;28;20241;-33
2023/09/07 05:25:54;;;;;;;0.30;0.30;;;23.70;58.60;;;24.06;43.83;95600.47;5012317;28;20304;-37
2023/09/07 05:28:24;;;;;;;0.30;0.30;;;23.70;58.60;;;24.09;43.85;95599.16;5011939;28;20192;-34
2023/09/07 05:30:53;;;;;;;0.40;0.40;;;23.80;58.70;;;24.11;43.95;95605.06;4996238;28;20215;-32
2023/09/07 05:33:22;;;;;;;0.30;0.30;;;23.80;58.60;;;24.12;43.75;95603.97;5011971;28;20210;-33
2023/09/07 05:35:49;;;;;;;0.32;0.32;;;23.80;58.50;;;24.13;43.90;95606.41;5013341;28;20207;-33
2023/09/07 05:38:16;;;;;;;0.30;0.30;;;23.80;58.50;;;24.17;43.87;95611.22;5011898;28;20231;-34
2023/09/07 05:40:45;;;;;;;0.20;0.20;;;23.90;58.90;;;24.18;43.92;95610.19;4995538;28;20681;-33
2023/09/07 05:43:12;;;;;;;0.30;0.30;;;23.90;58.50;;;24.19;43.67;95612.59;5011843;28;20212;-33
2023/09/07 05:45:41;;;;;;;0.50;0.50;;;23.90;58.60;;;24.21;44.01;95617.72;5012745;28;20202;-32
2023/09/07 05:48:10;;;;;;;0.30;0.30;;;24.00;58.50;;;24.23;43.78;95615.56;5011062;28;20207;-32
2023/09/07 05:50:38;;;;;;;0.30;0.30;;;24.00;58.50;;;24.23;43.58;95619.06;5011961;28;20666;-32
2023/09/07 05:53:06;;;;;;;0.20;0.20;;;24.00;58.50;;;24.25;43.81;95622.25;5011571;28;20216;-34
2023/09/07 05:55:34;;;;;;;0.38;0.38;;;24.00;58.50;;;24.26;43.77;95625.75;5012400;28;20226;-33
2023/09/07 05:58:07;;;;;;;0.30;0.30;;;24.00;58.50;;;24.27;43.84;95628.19;5011568;28;20202;-33
2023/09/07 06:00:39;;;;;;;0.40;0.40;;;24.00;58.40;;;24.28;43.87;95632.47;5011399;28;20232;-35
2023/09/07 06:03:10;;;;;;;0.30;0.30;;;24.00;58.40;;;24.29;43.67;95626.06;5011518;28;20210;-34
2023/09/07 06:05:39;;;;;;;0.40;0.40;;;24.00;58.30;;;24.30;43.81;95621.47;5011816;28;20199;-35
2023/09/07 06:08:08;;;;;;;0.50;0.50;;;24.00;58.30;;;24.33;43.75;95620.16;5011507;28;20199;-33
2023/09/07 06:10:37;;;;;;;0.30;0.30;;;24.10;58.40;;;24.33;43.78;95620.16;5011385;28;20215;-34
2023/09/07 06:13:05;;;;;;;0.30;0.30;;;24.10;58.30;;;24.35;43.76;95620.69;4995344;28;20211;-34
2023/09/07 06:15:32;;;;;;;0.30;0.30;;;24.10;58.40;;;24.35;43.77;95621.53;5012636;28;20560;-35
2023/09/07 06:17:59;;;;;;;0.40;0.40;;;24.10;58.40;;;24.36;43.71;95619.63;5011331;28;20319;-34
2023/09/07 06:20:26;;;;;;;0.40;0.40;;;24.10;58.40;;;24.37;43.74;95622.06;5011085;28;20305;-33
2023/09/07 06:22:56;;;;;;;0.50;0.50;;;24.10;58.40;;;24.38;43.65;95621.00;5011272;28;20198;-34
2023/09/07 06:25:23;;;;;;;0.50;0.50;;;24.10;58.40;;;24.39;43.71;95624.47;5011278;28;20217;-35
2023/09/07 06:27:51;;;;;;;0.30;0.30;;;24.10;58.40;;;24.40;43.79;95618.03;5011227;28;20523;-37
2023/09/07 06:30:19;;;;;;;0.43;0.43;;;24.10;58.50;;;24.42;43.68;95621.28;5013032;28;20206;-37
2023/09/07 06:32:48;;;;;;;0.50;0.50;;;24.20;58.60;;;24.42;43.63;95621.28;5011172;28;20597;-33
2023/09/07 06:35:17;;;;;;;0.30;0.30;;;24.20;58.50;;;24.45;43.68;95628.81;5012342;28;20275;-32
2023/09/07 06:37:45;;;;;;;0.40;0.40;;;24.20;58.50;;;24.45;44.04;95632.28;5011110;28;20204;-36
2023/09/07 06:40:15;;;;;;;0.30;0.30;;;24.20;58.50;;;24.48;43.80;95632.84;5011153;28;20209;-32
2023/09/07 06:42:44;;;;;;;0.30;0.30;;;24.20;58.50;;;24.49;43.63;95631.78;5011028;28;20584;-33
2023/09/07 06:45:15;;;;;;;0.30;0.30;;;24.20;58.70;;;24.49;43.74;95624.50;5011146;28;20211;-33
2023/09/07 06:47:42;;;;;;;0.30;0.30;;;24.20;58.50;;;24.49;43.85;95627.19;5011200;28;20217;-33
2023/09/07 06:50:10;;;;;;;0.40;0.40;;;24.20;58.60;;;24.52;43.82;95633.91;5011023;28;20196;-36
2023/09/07 06:52:38;;;;;;;0.43;0.43;;;24.30;58.70;;;24.52;43.76;95634.69;5010970;28;20197;-34
2023/09/07 06:55:06;;;;;;;0.30;0.30;;;24.30;58.80;;;24.53;43.77;95633.63;5010883;28;20206;-35
2023/09/07 06:57:33;;;;;;;0.30;0.30;;;24.30;58.70;;;24.54;43.71;95635.25;5011023;28;20198;-34
2023/09/07 07:00:07;;;;;;;0.40;0.40;;;24.30;58.70;;;24.56;43.90;95638.50;5013854;28;20269;-33
2023/09/07 07:02:36;;;;;;;0.30;0.30;;;24.30;58.80;;;24.56;43.83;95638.50;5014323;28;20224;-32
2023/09/07 07:05:04;;;;;;;0.30;0.30;;;24.30;59.00;;;24.59;43.89;95637.94;5014204;28;20605;-35
2023/09/07 07:07:32;;;;;;;0.30;0.30;;;24.30;58.80;;;24.60;43.96;95633.41;5014210;28;20226;-32
2023/09/07 07:09:59;;;;;;;0.30;0.30;;;24.30;58.80;;;24.62;43.91;95636.66;5014672;28;20196;-34
2023/09/07 07:12:27;;;;;;;0.30;0.30;;;24.30;58.70;;;24.63;43.90;95630.19;5014195;28;20262;-34
2023/09/07 07:14:55;;;;;;;0.60;0.60;;;24.40;58.90;;;24.63;43.81;95643.59;5015045;28;20204;-32
2023/09/07 07:17:22;;;;;;;0.30;0.30;;;24.40;58.80;;;24.66;43.99;95639.59;5013949;28;20256;-34
2023/09/07 07:19:49;;;;;;;0.50;0.50;;;24.40;58.90;;;24.68;44.01;95642.84;5013871;28;20203;-33
2023/09/07 07:22:17;;;;;;;0.30;0.30;;;24.40;58.80;;;24.69;43.88;95634.53;4998601;28;20534;-35
2023/09/07 07:24:48;;;;;;;0.30;0.30;;;24.40;58.80;;;24.71;43.88;95637.75;5013972;28;20201;-33
2023/09/07 07:27:15;;;;;;;0.40;0.40;;;24.40;58.80;;;24.73;43.95;95634.81;5015113;28;20198;-31
2023/09/07 07:29:44;;;;;;;0.45;0.45;;;24.40;58.80;;;24.73;43.63;95635.63;5013906;28;20619;-35
2023/09/07 07:32:12;;;;;;;0.30;0.30;;;24.40;58.80;;;24.77;43.95;95652.00;5013831;28;20209;-32
2023/09/07 07:34:39;;;;;;;0.30;0.30;;;24.50;59.00;;;24.78;43.76;95651.72;5015265;28;20559;-34
2023/09/07 07:37:07;;;;;;;0.45;0.45;;;24.50;58.90;;;24.78;44.04;95641.00;5014692;28;20208;-31
2023/09/07 07:39:34;;;;;;;0.30;0.30;;;24.50;58.90;;;24.81;43.96;95645.03;5013916;28;20258;-37
2023/09/07 07:42:04;;;;;;;0.30;0.30;;;24.50;58.90;;;24.81;44.00;95644.22;5014814;28;20223;-33
2023/09/07 07:44:31;;;;;;;0.38;0.38;;;24.50;58.90;;;24.84;44.01;95641.81;5013631;28;20200;-32
2023/09/07 07:46:58;;;;;;;0.60;0.60;;;24.50;58.90;;;24.87;43.81;95641.28;4997968;28;20286;-32
2023/09/07 07:49:27;;;;;;;0.40;0.40;;;24.50;58.90;;;24.88;43.56;95644.78;5013550;28;20191;-35
2023/09/07 07:51:56;;;;;;;0.30;0.30;;;24.60;59.00;;;24.89;43.94;95636.47;5013516;28;20683;-34
2023/09/07 07:54:24;;;;;;;0.40;0.40;;;24.60;59.00;;;24.91;43.61;95642.38;5013460;28;20257;-32
2023/09/07 07:56:53;;;;;;;0.40;0.40;;;24.60;58.90;;;24.92;44.02;95645.84;5013468;28;20276;-34
2023/09/07 07:59:21;;;;;;;0.30;0.30;;;24.60;59.00;;;24.93;43.94;95647.47;5014339;28;20190;-32
2023/09/07 08:01:48;;;;;;;0.50;0.50;;;24.60;58.90;;;24.96;43.75;95648.81;4997222;28;20215;-37
2023/09/07 08:04:15;;;;;;;0.30;0.30;;;24.60;58.90;;;24.98;43.90;95644.81;5014194;28;20212;-35
2023/09/07 08:06:43;;;;;;;0.30;0.30;;;24.60;58.80;;;24.99;44.29;95648.31;5014233;28;20191;-38
2023/09/07 08:09:10;;;;;;;0.30;0.30;;;24.60;58.90;;;25.00;43.77;95642.66;5014176;28;20198;-35
2023/09/07 08:11:39;;;;;;;0.40;0.40;;;24.70;58.80;;;25.02;43.75;95650.44;5013433;28;20208;-35
2023/09/07 08:14:06;;;;;;;0.45;0.45;;;24.70;58.90;;;25.03;43.71;95642.13;5013154;28;20697;-34
2023/09/07 08:16:33;;;;;;;0.30;0.30;;;24.70;58.80;;;25.06;43.57;95644.28;5013002;28;20218;-36
2023/09/07 08:19:01;;;;;;;0.30;0.30;;;24.80;59.10;;;25.08;43.84;95641.31;5014263;28;20199;-32
2023/09/07 08:21:28;;;;;;;0.30;0.30;;;24.80;59.00;;;25.09;43.75;95648.31;5014918;28;20524;-35
2023/09/07 08:23:56;;;;;;;0.30;0.30;;;24.80;58.90;;;25.11;43.80;95640.81;5013031;28;20212;-31
2023/09/07 08:26:23;;;;;;;0.30;0.30;;;24.80;58.90;;;25.12;43.76;95647.78;5012992;28;20206;-32
2023/09/07 08:28:50;;;;;;;0.30;0.30;;;24.80;58.80;;;25.15;43.80;95643.75;5014429;28;20224;-33
2023/09/07 08:31:21;;;;;;;0.30;0.30;;;24.80;59.00;;;25.16;43.88;95648.84;5014085;28;20218;-32
2023/09/07 08:33:51;;;;;;;0.30;0.30;;;24.90;59.00;;;25.18;43.87;95645.91;5014126;28;20196;-35
2023/09/07 08:36:22;;;;;;;0.30;0.30;;;24.80;58.90;;;25.20;43.93;95651.81;5014082;28;20330;-36
2023/09/07 08:38:53;;;;;;;0.30;0.30;;;24.90;59.00;;;25.21;43.59;95645.38;5013995;28;20203;-34
2023/09/07 08:41:21;;;;;;;0.40;0.40;;;24.90;59.00;;;25.23;43.65;95644.03;5013985;28;20546;-35
2023/09/07 08:43:49;;;;;;;0.50;0.50;;;24.90;58.90;;;25.25;43.62;95641.91;5013071;28;20235;-37
2023/09/07 08:46:21;;;;;;;0.30;0.30;;;24.90;58.90;;;25.28;43.54;95653.16;5013334;28;20197;-33
2023/09/07 08:48:50;;;;;;;0.40;0.40;;;24.90;58.90;;;25.29;43.83;95652.88;5013933;28;20244;-35
2023/09/07 08:51:19;;;;;;;0.30;0.30;;;25.00;58.80;;;25.32;43.72;95648.88;5013724;28;20637;-35
2023/09/07 08:53:47;;;;;;;0.20;0.20;;;24.90;58.80;;;25.33;43.91;95650.47;5012916;28;20288;-32
2023/09/07 08:56:16;;;;;;;0.30;0.30;;;24.90;58.80;;;25.35;43.72;95651.03;5013495;28;20655;-32
2023/09/07 08:58:49;;;;;;;0.30;0.30;;;25.00;58.80;;;25.36;43.34;95650.75;5013796;28;20193;-32
2023/09/07 09:01:21;;;;;;;0.40;0.40;;;25.00;58.70;;;25.38;43.60;95653.22;5013626;28;20212;-32
2023/09/07 09:03:49;;;;;;;0.40;0.40;;;25.00;58.70;;;25.40;43.81;95651.03;5013409;28;20185;-32
2023/09/07 09:06:19;;;;;;;0.40;0.40;;;25.10;58.70;;;25.40;43.25;95649.19;5013315;28;20194;-32
2023/09/07 09:08:56;;;;;;;0.30;0.30;;;25.00;58.60;;;25.43;43.30;95661.25;5013267;28;20198;-36
2023/09/07 09:11:26;;;;;;;0.30;0.30;;;25.10;58.60;;;25.45;42.89;95653.75;5013755;28;20200;-32
2023/09/07 09:13:53;;;;;;;0.30;0.30;;;25.10;58.50;;;25.47;43.47;95654.28;5012374;28;20220;-32
2023/09/07 09:16:21;;;;;;;0.40;0.40;;;25.10;58.30;;;25.47;43.40;95656.97;5013743;28;20218;-35
2023/09/07 09:18:55;;;;;;;0.30;0.30;;;25.10;58.40;;;25.50;43.26;95652.94;5013381;28;20627;-33
2023/09/07 09:21:27;;;;;;;0.30;0.30;;;25.10;58.10;;;25.51;42.79;95647.31;5013165;28;20304;-34
2023/09/07 09:23:57;;;;;;;0.30;0.30;;;25.10;58.10;;;25.54;43.06;95659.38;5012620;28;20189;-32
2023/09/07 09:26:24;;;;;;;0.43;0.43;;;25.10;58.10;;;25.54;43.21;95652.13;5013352;28;20205;-33
2023/09/07 09:28:56;;;;;;;0.30;0.30;;;25.20;58.20;;;25.56;43.12;95646.47;5013086;28;20178;-32
2023/09/07 09:31:24;;;;;;;0.30;0.30;;;25.20;58.10;;;25.59;42.96;95640.56;5012985;28;20659;-35
2023/09/07 09:33:53;;;;;;;0.30;0.30;;;25.20;58.10;;;25.60;42.95;95644.06;5013194;28;20578;-33
2023/09/07 09:36:21;;;;;;;0.40;0.40;;;25.20;58.10;;;25.63;42.88;95643.53;5013148;28;20280;-35
2023/09/07 09:38:55;;;;;;;0.38;0.38;;;25.20;58.00;;;25.65;43.03;95633.34;5013069;28;20208;-34
2023/09/07 09:41:23;;;;;;;0.30;0.30;;;25.20;57.90;;;25.66;42.84;95635.75;5012346;28;20221;-34
2023/09/07 09:43:52;;;;;;;0.28;0.28;;;25.30;58.00;;;25.69;42.68;95637.88;5011925;28;20534;-35
2023/09/07 09:46:20;;;;;;;0.30;0.30;;;25.30;57.90;;;25.71;43.01;95635.72;5012756;28;20287;-34
2023/09/07 09:48:48;;;;;;;0.30;0.30;;;25.30;59.10;;;25.75;42.86;95637.88;5012069;28;20192;-35
2023/09/07 09:51:15;;;;;;;0.40;0.40;;;25.30;59.10;;;25.75;42.95;95640.56;5012031;28;20195;-34
2023/09/07 09:53:43;;;;;;;0.30;0.30;;;25.30;57.80;;;25.77;42.43;95641.91;5012638;28;20225;-35
2023/09/07 09:56:11;;;;;;;0.30;0.30;;;25.30;57.80;;;25.81;42.79;95640.28;5011994;28;20209;-35
2023/09/07 09:58:38;;;;;;;0.35;0.35;;;25.40;57.70;;;25.80;42.30;95633.28;5011882;28;20198;-32
2023/09/07 10:01:07;;;;;;;0.40;0.40;;;25.40;57.50;;;25.84;42.45;95636.25;5012605;28;20288;-35
2023/09/07 10:03:45;;;;;;;0.32;0.32;;;25.40;57.50;;;25.85;42.04;95633.31;5011484;28;20305;-34
2023/09/07 10:06:23;;;;;;;0.22;0.22;;;25.40;57.40;;;25.87;42.14;95635.72;5011718;28;20521;-34
2023/09/07 10:09:06;;;;;;;0.30;0.30;;;25.40;57.20;;;25.88;42.42;95632.75;5013012;28;20192;-36
2023/09/07 10:11:38;;;;;;;0.40;0.40;;;25.40;58.40;;;25.89;42.02;95634.38;5012477;28;20216;-36
2023/09/07 10:14:07;;;;;;;0.40;0.40;;;25.50;57.40;;;25.93;42.03;95640.00;5011798;28;20597;-32
2023/09/07 10:16:52;;;;;;;0.30;0.30;;;25.50;57.30;;;25.94;42.04;95636.25;5011342;28;20205;-35
2023/09/07 10:19:22;;;;;;;0.30;0.30;;;25.50;57.10;;;25.97;41.79;95641.06;5012892;28;20188;-36
2023/09/07 10:21:52;;;;;;;0.30;0.30;;;25.50;57.20;;;26.00;41.60;95637.84;5012415;28;20221;-36
2023/09/07 10:24:33;;;;;;;0.30;0.30;;;25.60;57.30;;;26.00;42.09;95631.66;5012287;28;20277;-36
2023/09/07 10:27:05;;;;;;;0.30;0.30;;;25.60;56.90;;;26.02;42.03;95630.31;5012778;28;20585;-34